sensor_id;sensor_type;location;lat;lon;timestamp;P1;durP1;ratioP1;P2;durP2;ratioP2
64688;SDS011;62504;46.070;14.492;2023-02-21T00:01:47;36.73;;;17.57;;
64688;SDS011;62504;46.070;14.492;2023-02-21T00:04:31;40.57;;;19.87;;
64688;SDS011;62504;46.070;14.492;2023-02-21T00:07:16;44.17;;;20.13;;
64688;SDS011;62504;46.070;14.492;2023-02-21T00:10:01;42.20;;;20.43;;
64688;SDS011;62504;46.070;14.492;2023-02-21T00:12:45;50.53;;;21.17;;
64688;SDS011;62504;46.070;14.492;2023-02-21T00:15:30;46.67;;;20.93;;
64688;SDS011;62504;46.070;14.492;2023-02-21T00:18:14;46.23;;;21.47;;
64688;SDS011;62504;46.070;14.492;2023-02-21T00:20:58;45.77;;;21.87;;
64688;SDS011;62504;46.070;14.492;2023-02-21T00:23:42;42.90;;;19.73;;
64688;SDS011;62504;46.070;14.492;2023-02-21T00:26:26;41.27;;;19.27;;
64688;SDS011;62504;46.070;14.492;2023-02-21T00:29:10;45.13;;;20.30;;
64688;SDS011;62504;46.070;14.492;2023-02-21T00:31:54;43.77;;;18.73;;
64688;SDS011;62504;46.070;14.492;2023-02-21T00:34:39;38.67;;;18.30;;
64688;SDS011;62504;46.070;14.492;2023-02-21T00:37:23;40.00;;;19.20;;
64688;SDS011;62504;46.070;14.492;2023-02-21T00:40:10;36.97;;;17.33;;
64688;SDS011;62504;46.070;14.492;2023-02-21T00:42:55;34.87;;;17.63;;
64688;SDS011;62504;46.070;14.492;2023-02-21T00:45:39;35.37;;;17.53;;
64688;SDS011;62504;46.070;14.492;2023-02-21T00:48:23;35.57;;;17.20;;
64688;SDS011;62504;46.070;14.492;2023-02-21T00:51:08;34.63;;;16.60;;
64688;SDS011;62504;46.070;14.492;2023-02-21T00:53:52;33.73;;;17.10;;
64688;SDS011;62504;46.070;14.492;2023-02-21T00:56:36;36.17;;;16.57;;
64688;SDS011;62504;46.070;14.492;2023-02-21T00:59:21;35.17;;;17.00;;
64688;SDS011;62504;46.070;14.492;2023-02-21T01:02:05;34.50;;;16.43;;
64688;SDS011;62504;46.070;14.492;2023-02-21T01:04:49;34.37;;;16.37;;
64688;SDS011;62504;46.070;14.492;2023-02-21T01:07:33;35.30;;;16.40;;
64688;SDS011;62504;46.070;14.492;2023-02-21T01:10:18;33.73;;;16.27;;
64688;SDS011;62504;46.070;14.492;2023-02-21T01:13:02;34.77;;;17.13;;
64688;SDS011;62504;46.070;14.492;2023-02-21T01:15:46;34.33;;;15.67;;
64688;SDS011;62504;46.070;14.492;2023-02-21T01:18:31;35.93;;;15.70;;
64688;SDS011;62504;46.070;14.492;2023-02-21T01:21:16;35.83;;;16.47;;
64688;SDS011;62504;46.070;14.492;2023-02-21T01:24:02;30.60;;;15.67;;
64688;SDS011;62504;46.070;14.492;2023-02-21T01:26:47;36.03;;;16.93;;
64688;SDS011;62504;46.070;14.492;2023-02-21T01:29:31;35.80;;;17.17;;
64688;SDS011;62504;46.070;14.492;2023-02-21T01:32:15;32.03;;;15.60;;
64688;SDS011;62504;46.070;14.492;2023-02-21T01:34:59;33.43;;;16.00;;
64688;SDS011;62504;46.070;14.492;2023-02-21T01:37:44;34.47;;;15.90;;
64688;SDS011;62504;46.070;14.492;2023-02-21T01:40:28;34.07;;;15.23;;
64688;SDS011;62504;46.070;14.492;2023-02-21T01:43:16;33.80;;;15.80;;
64688;SDS011;62504;46.070;14.492;2023-02-21T01:46:02;38.50;;;16.20;;
64688;SDS011;62504;46.070;14.492;2023-02-21T01:48:48;40.93;;;17.10;;
64688;SDS011;62504;46.070;14.492;2023-02-21T01:51:37;35.17;;;17.10;;
64688;SDS011;62504;46.070;14.492;2023-02-21T01:54:25;38.00;;;18.07;;
64688;SDS011;62504;46.070;14.492;2023-02-21T01:57:12;38.63;;;17.83;;
64688;SDS011;62504;46.070;14.492;2023-02-21T01:59:58;36.23;;;16.93;;
64688;SDS011;62504;46.070;14.492;2023-02-21T02:02:49;34.07;;;16.30;;
64688;SDS011;62504;46.070;14.492;2023-02-21T02:05:41;33.13;;;16.23;;
64688;SDS011;62504;46.070;14.492;2023-02-21T02:08:29;33.17;;;16.10;;
64688;SDS011;62504;46.070;14.492;2023-02-21T02:19:43;32.07;;;15.40;;
64688;SDS011;62504;46.070;14.492;2023-02-21T02:29:33;35.30;;;14.90;;
64688;SDS011;62504;46.070;14.492;2023-02-21T02:42:39;41.17;;;18.17;;
64688;SDS011;62504;46.070;14.492;2023-02-21T02:47:51;46.27;;;19.23;;
64688;SDS011;62504;46.070;14.492;2023-02-21T02:50:21;49.00;;;20.67;;
64688;SDS011;62504;46.070;14.492;2023-02-21T02:52:53;48.70;;;20.23;;
64688;SDS011;62504;46.070;14.492;2023-02-21T02:58:18;48.07;;;20.87;;
64688;SDS011;62504;46.070;14.492;2023-02-21T03:00:49;50.50;;;21.63;;
64688;SDS011;62504;46.070;14.492;2023-02-21T03:09:20;51.77;;;22.13;;
64688;SDS011;62504;46.070;14.492;2023-02-21T03:12:34;53.47;;;21.60;;
64688;SDS011;62504;46.070;14.492;2023-02-21T03:15:07;52.87;;;22.67;;
64688;SDS011;62504;46.070;14.492;2023-02-21T03:17:41;58.33;;;23.93;;
64688;SDS011;62504;46.070;14.492;2023-02-21T03:20:10;52.30;;;22.57;;
64688;SDS011;62504;46.070;14.492;2023-02-21T03:22:38;55.70;;;22.63;;
64688;SDS011;62504;46.070;14.492;2023-02-21T03:25:06;54.40;;;24.17;;
64688;SDS011;62504;46.070;14.492;2023-02-21T03:27:32;57.63;;;23.27;;
64688;SDS011;62504;46.070;14.492;2023-02-21T03:30:02;56.80;;;24.87;;
64688;SDS011;62504;46.070;14.492;2023-02-21T03:32:30;58.07;;;23.60;;
64688;SDS011;62504;46.070;14.492;2023-02-21T03:35:02;62.17;;;25.00;;
64688;SDS011;62504;46.070;14.492;2023-02-21T03:37:37;58.63;;;24.63;;
64688;SDS011;62504;46.070;14.492;2023-02-21T03:40:12;60.70;;;24.43;;
64688;SDS011;62504;46.070;14.492;2023-02-21T03:42:40;56.67;;;24.60;;
64688;SDS011;62504;46.070;14.492;2023-02-21T03:45:06;63.40;;;25.70;;
64688;SDS011;62504;46.070;14.492;2023-02-21T03:47:32;61.10;;;25.47;;
64688;SDS011;62504;46.070;14.492;2023-02-21T03:49:58;58.57;;;24.97;;
64688;SDS011;62504;46.070;14.492;2023-02-21T03:52:24;63.00;;;25.00;;
64688;SDS011;62504;46.070;14.492;2023-02-21T03:54:49;58.13;;;24.63;;
64688;SDS011;62504;46.070;14.492;2023-02-21T03:57:15;63.67;;;25.50;;
64688;SDS011;62504;46.070;14.492;2023-02-21T03:59:41;61.07;;;25.00;;
64688;SDS011;62504;46.070;14.492;2023-02-21T04:02:07;59.23;;;24.83;;
64688;SDS011;62504;46.070;14.492;2023-02-21T04:04:33;63.83;;;25.60;;
64688;SDS011;62504;46.070;14.492;2023-02-21T04:06:58;64.20;;;25.23;;
64688;SDS011;62504;46.070;14.492;2023-02-21T04:09:24;59.53;;;25.37;;
64688;SDS011;62504;46.070;14.492;2023-02-21T04:11:51;61.10;;;25.40;;
64688;SDS011;62504;46.070;14.492;2023-02-21T04:14:17;62.00;;;25.83;;
64688;SDS011;62504;46.070;14.492;2023-02-21T04:16:42;63.23;;;26.27;;
64688;SDS011;62504;46.070;14.492;2023-02-21T04:19:08;65.27;;;26.50;;
64688;SDS011;62504;46.070;14.492;2023-02-21T04:21:34;64.30;;;25.80;;
64688;SDS011;62504;46.070;14.492;2023-02-21T04:23:59;61.60;;;25.60;;
64688;SDS011;62504;46.070;14.492;2023-02-21T04:26:25;62.27;;;25.50;;
64688;SDS011;62504;46.070;14.492;2023-02-21T04:28:53;65.53;;;26.90;;
64688;SDS011;62504;46.070;14.492;2023-02-21T04:31:20;60.93;;;24.30;;
64688;SDS011;62504;46.070;14.492;2023-02-21T04:33:46;67.20;;;25.93;;
64688;SDS011;62504;46.070;14.492;2023-02-21T04:36:12;68.87;;;26.53;;
64688;SDS011;62504;46.070;14.492;2023-02-21T04:38:38;66.50;;;26.87;;
64688;SDS011;62504;46.070;14.492;2023-02-21T04:41:04;66.17;;;26.40;;
64688;SDS011;62504;46.070;14.492;2023-02-21T04:43:30;68.57;;;27.87;;
64688;SDS011;62504;46.070;14.492;2023-02-21T04:45:55;62.97;;;25.97;;
64688;SDS011;62504;46.070;14.492;2023-02-21T04:48:21;57.37;;;24.07;;
64688;SDS011;62504;46.070;14.492;2023-02-21T04:50:47;43.30;;;18.17;;
64688;SDS011;62504;46.070;14.492;2023-02-21T04:53:13;40.47;;;16.83;;
64688;SDS011;62504;46.070;14.492;2023-02-21T04:55:39;32.63;;;14.97;;
64688;SDS011;62504;46.070;14.492;2023-02-21T04:58:04;32.40;;;15.70;;
64688;SDS011;62504;46.070;14.492;2023-02-21T05:00:30;32.20;;;14.80;;
64688;SDS011;62504;46.070;14.492;2023-02-21T05:02:56;34.20;;;14.40;;
64688;SDS011;62504;46.070;14.492;2023-02-21T05:05:22;31.33;;;14.60;;
64688;SDS011;62504;46.070;14.492;2023-02-21T05:07:47;39.93;;;16.90;;
64688;SDS011;62504;46.070;14.492;2023-02-21T05:10:14;37.57;;;17.53;;
64688;SDS011;62504;46.070;14.492;2023-02-21T05:12:40;38.67;;;16.80;;
64688;SDS011;62504;46.070;14.492;2023-02-21T05:15:09;44.27;;;18.83;;
64688;SDS011;62504;46.070;14.492;2023-02-21T05:17:36;52.33;;;19.73;;
64688;SDS011;62504;46.070;14.492;2023-02-21T05:20:02;53.33;;;21.63;;
64688;SDS011;62504;46.070;14.492;2023-02-21T05:22:29;56.77;;;22.43;;
64688;SDS011;62504;46.070;14.492;2023-02-21T05:24:54;64.40;;;25.63;;
64688;SDS011;62504;46.070;14.492;2023-02-21T05:27:20;65.07;;;25.67;;
64688;SDS011;62504;46.070;14.492;2023-02-21T05:29:51;67.50;;;26.40;;
64688;SDS011;62504;46.070;14.492;2023-02-21T05:32:18;60.93;;;24.83;;
64688;SDS011;62504;46.070;14.492;2023-02-21T05:34:45;66.33;;;26.83;;
64688;SDS011;62504;46.070;14.492;2023-02-21T05:37:20;60.97;;;24.53;;
64688;SDS011;62504;46.070;14.492;2023-02-21T05:39:47;65.20;;;25.47;;
64688;SDS011;62504;46.070;14.492;2023-02-21T05:42:12;65.20;;;25.83;;
64688;SDS011;62504;46.070;14.492;2023-02-21T05:44:38;67.50;;;25.93;;
64688;SDS011;62504;46.070;14.492;2023-02-21T05:47:04;64.20;;;26.03;;
64688;SDS011;62504;46.070;14.492;2023-02-21T05:49:32;66.77;;;27.17;;
64688;SDS011;62504;46.070;14.492;2023-02-21T05:51:58;72.30;;;23.90;;
64688;SDS011;62504;46.070;14.492;2023-02-21T05:54:24;44.67;;;18.50;;
64688;SDS011;62504;46.070;14.492;2023-02-21T05:56:50;37.80;;;17.10;;
64688;SDS011;62504;46.070;14.492;2023-02-21T05:59:17;35.97;;;16.03;;
64688;SDS011;62504;46.070;14.492;2023-02-21T06:01:45;34.60;;;14.83;;
64688;SDS011;62504;46.070;14.492;2023-02-21T06:04:11;37.93;;;15.60;;
64688;SDS011;62504;46.070;14.492;2023-02-21T06:06:37;37.83;;;15.97;;
64688;SDS011;62504;46.070;14.492;2023-02-21T06:09:03;39.83;;;16.77;;
64688;SDS011;62504;46.070;14.492;2023-02-21T06:11:30;48.17;;;16.63;;
64688;SDS011;62504;46.070;14.492;2023-02-21T06:13:58;38.63;;;16.03;;
64688;SDS011;62504;46.070;14.492;2023-02-21T06:16:30;40.73;;;18.27;;
64688;SDS011;62504;46.070;14.492;2023-02-21T06:19:03;42.33;;;18.37;;
64688;SDS011;62504;46.070;14.492;2023-02-21T06:21:31;62.50;;;26.57;;
64688;SDS011;62504;46.070;14.492;2023-02-21T06:23:57;40.27;;;16.87;;
64688;SDS011;62504;46.070;14.492;2023-02-21T06:26:23;132.73;;;46.23;;
64688;SDS011;62504;46.070;14.492;2023-02-21T06:28:49;243.67;;;96.53;;
64688;SDS011;62504;46.070;14.492;2023-02-21T06:31:16;54.43;;;18.20;;
64688;SDS011;62504;46.070;14.492;2023-02-21T06:33:42;32.60;;;13.00;;
64688;SDS011;62504;46.070;14.492;2023-02-21T06:36:10;29.27;;;12.43;;
64688;SDS011;62504;46.070;14.492;2023-02-21T06:38:38;40.77;;;16.40;;
64688;SDS011;62504;46.070;14.492;2023-02-21T06:41:07;43.77;;;18.60;;
64688;SDS011;62504;46.070;14.492;2023-02-21T06:43:33;51.90;;;19.70;;
64688;SDS011;62504;46.070;14.492;2023-02-21T06:46:02;48.50;;;19.10;;
64688;SDS011;62504;46.070;14.492;2023-02-21T06:48:28;55.67;;;23.37;;
64688;SDS011;62504;46.070;14.492;2023-02-21T06:50:54;59.87;;;24.07;;
64688;SDS011;62504;46.070;14.492;2023-02-21T06:53:21;55.23;;;22.50;;
64688;SDS011;62504;46.070;14.492;2023-02-21T06:55:46;41.33;;;18.73;;
64688;SDS011;62504;46.070;14.492;2023-02-21T06:58:12;40.97;;;15.47;;
64688;SDS011;62504;46.070;14.492;2023-02-21T07:00:38;36.37;;;14.47;;
64688;SDS011;62504;46.070;14.492;2023-02-21T07:03:04;33.07;;;14.60;;
64688;SDS011;62504;46.070;14.492;2023-02-21T07:05:29;32.73;;;14.13;;
64688;SDS011;62504;46.070;14.492;2023-02-21T07:07:59;34.77;;;14.03;;
64688;SDS011;62504;46.070;14.492;2023-02-21T07:10:25;35.17;;;14.27;;
64688;SDS011;62504;46.070;14.492;2023-02-21T07:12:51;32.63;;;14.27;;
64688;SDS011;62504;46.070;14.492;2023-02-21T07:15:17;35.57;;;15.20;;
64688;SDS011;62504;46.070;14.492;2023-02-21T07:17:42;35.63;;;15.53;;
64688;SDS011;62504;46.070;14.492;2023-02-21T07:20:09;36.43;;;15.13;;
64688;SDS011;62504;46.070;14.492;2023-02-21T07:22:35;41.80;;;16.30;;
64688;SDS011;62504;46.070;14.492;2023-02-21T07:25:00;37.23;;;15.43;;
64688;SDS011;62504;46.070;14.492;2023-02-21T07:27:26;33.30;;;14.60;;
64688;SDS011;62504;46.070;14.492;2023-02-21T07:29:52;33.83;;;14.23;;
64688;SDS011;62504;46.070;14.492;2023-02-21T07:32:17;35.67;;;14.80;;
64688;SDS011;62504;46.070;14.492;2023-02-21T07:34:43;31.00;;;14.13;;
64688;SDS011;62504;46.070;14.492;2023-02-21T07:37:09;32.53;;;14.00;;
64688;SDS011;62504;46.070;14.492;2023-02-21T07:39:35;29.67;;;13.13;;
64688;SDS011;62504;46.070;14.492;2023-02-21T07:42:02;30.30;;;13.27;;
64688;SDS011;62504;46.070;14.492;2023-02-21T07:44:28;28.47;;;12.47;;
64688;SDS011;62504;46.070;14.492;2023-02-21T07:46:55;24.60;;;11.73;;
64688;SDS011;62504;46.070;14.492;2023-02-21T07:49:21;27.17;;;11.63;;
64688;SDS011;62504;46.070;14.492;2023-02-21T07:51:47;23.80;;;10.90;;
64688;SDS011;62504;46.070;14.492;2023-02-21T07:54:14;33.20;;;12.40;;
64688;SDS011;62504;46.070;14.492;2023-02-21T07:56:44;27.33;;;11.70;;
64688;SDS011;62504;46.070;14.492;2023-02-21T07:59:11;28.50;;;12.60;;
64688;SDS011;62504;46.070;14.492;2023-02-21T08:01:36;31.80;;;12.23;;
64688;SDS011;62504;46.070;14.492;2023-02-21T08:04:02;30.13;;;11.97;;
64688;SDS011;62504;46.070;14.492;2023-02-21T08:06:28;27.57;;;11.53;;
64688;SDS011;62504;46.070;14.492;2023-02-21T08:08:54;31.10;;;12.57;;
64688;SDS011;62504;46.070;14.492;2023-02-21T08:11:20;26.57;;;11.80;;
64688;SDS011;62504;46.070;14.492;2023-02-21T08:13:45;24.87;;;10.90;;
64688;SDS011;62504;46.070;14.492;2023-02-21T08:16:11;25.53;;;11.97;;
64688;SDS011;62504;46.070;14.492;2023-02-21T08:18:37;23.80;;;11.27;;
64688;SDS011;62504;46.070;14.492;2023-02-21T08:21:03;22.23;;;10.60;;
64688;SDS011;62504;46.070;14.492;2023-02-21T08:23:33;20.23;;;9.97;;
64688;SDS011;62504;46.070;14.492;2023-02-21T08:25:58;23.30;;;10.50;;
64688;SDS011;62504;46.070;14.492;2023-02-21T08:28:24;20.13;;;10.40;;
64688;SDS011;62504;46.070;14.492;2023-02-21T08:30:50;23.07;;;10.70;;
64688;SDS011;62504;46.070;14.492;2023-02-21T08:33:16;24.30;;;10.97;;
64688;SDS011;62504;46.070;14.492;2023-02-21T08:35:42;29.30;;;12.50;;
64688;SDS011;62504;46.070;14.492;2023-02-21T08:38:08;26.27;;;10.77;;
64688;SDS011;62504;46.070;14.492;2023-02-21T08:40:34;26.70;;;11.33;;
64688;SDS011;62504;46.070;14.492;2023-02-21T08:43:00;27.93;;;12.37;;
64688;SDS011;62504;46.070;14.492;2023-02-21T08:45:26;28.80;;;12.23;;
64688;SDS011;62504;46.070;14.492;2023-02-21T08:47:53;30.97;;;13.03;;
64688;SDS011;62504;46.070;14.492;2023-02-21T08:50:19;29.73;;;13.70;;
64688;SDS011;62504;46.070;14.492;2023-02-21T08:52:50;32.00;;;13.57;;
64688;SDS011;62504;46.070;14.492;2023-02-21T08:55:17;30.47;;;13.63;;
64688;SDS011;62504;46.070;14.492;2023-02-21T08:57:43;27.03;;;12.93;;
64688;SDS011;62504;46.070;14.492;2023-02-21T09:00:10;33.83;;;13.93;;
64688;SDS011;62504;46.070;14.492;2023-02-21T09:02:38;32.43;;;14.33;;
64688;SDS011;62504;46.070;14.492;2023-02-21T09:07:33;32.47;;;13.53;;
64688;SDS011;62504;46.070;14.492;2023-02-21T09:09:59;33.50;;;13.93;;
64688;SDS011;62504;46.070;14.492;2023-02-21T09:12:25;33.37;;;15.40;;
64688;SDS011;62504;46.070;14.492;2023-02-21T09:14:51;43.07;;;19.37;;
64688;SDS011;62504;46.070;14.492;2023-02-21T09:17:17;57.53;;;24.87;;
64688;SDS011;62504;46.070;14.492;2023-02-21T09:19:42;56.17;;;26.60;;
64688;SDS011;62504;46.070;14.492;2023-02-21T09:22:09;68.17;;;28.93;;
64688;SDS011;62504;46.070;14.492;2023-02-21T09:24:35;66.00;;;28.13;;
64688;SDS011;62504;46.070;14.492;2023-02-21T09:27:01;61.87;;;28.70;;
64688;SDS011;62504;46.070;14.492;2023-02-21T09:29:28;66.73;;;29.07;;
64688;SDS011;62504;46.070;14.492;2023-02-21T09:31:55;61.00;;;28.47;;
64688;SDS011;62504;46.070;14.492;2023-02-21T09:34:21;64.83;;;29.00;;
64688;SDS011;62504;46.070;14.492;2023-02-21T09:36:47;68.03;;;29.13;;
64688;SDS011;62504;46.070;14.492;2023-02-21T09:39:15;62.40;;;29.13;;
64688;SDS011;62504;46.070;14.492;2023-02-21T09:41:41;60.47;;;28.17;;
64688;SDS011;62504;46.070;14.492;2023-02-21T09:44:12;68.47;;;29.63;;
64688;SDS011;62504;46.070;14.492;2023-02-21T09:46:43;60.63;;;27.87;;
64688;SDS011;62504;46.070;14.492;2023-02-21T09:49:22;64.57;;;29.30;;
64688;SDS011;62504;46.070;14.492;2023-02-21T09:51:51;65.57;;;29.30;;
64688;SDS011;62504;46.070;14.492;2023-02-21T09:54:25;62.30;;;28.30;;
64688;SDS011;62504;46.070;14.492;2023-02-21T09:56:53;59.50;;;29.13;;
64688;SDS011;62504;46.070;14.492;2023-02-21T09:59:21;61.87;;;29.70;;
64688;SDS011;62504;46.070;14.492;2023-02-21T10:01:53;66.57;;;30.43;;
64688;SDS011;62504;46.070;14.492;2023-02-21T10:04:32;61.63;;;30.10;;
64688;SDS011;62504;46.070;14.492;2023-02-21T10:09:45;61.60;;;30.03;;
64688;SDS011;62504;46.070;14.492;2023-02-21T10:18:04;66.57;;;31.47;;
64688;SDS011;62504;46.070;14.492;2023-02-21T10:20:38;62.50;;;29.43;;
64688;SDS011;62504;46.070;14.492;2023-02-21T10:23:15;63.83;;;30.50;;
64688;SDS011;62504;46.070;14.492;2023-02-21T10:26:03;62.23;;;29.53;;
64688;SDS011;62504;46.070;14.492;2023-02-21T10:28:33;61.07;;;29.47;;
64688;SDS011;62504;46.070;14.492;2023-02-21T10:31:02;60.33;;;28.70;;
64688;SDS011;62504;46.070;14.492;2023-02-21T10:33:36;65.07;;;29.93;;
64688;SDS011;62504;46.070;14.492;2023-02-21T10:36:24;63.67;;;29.63;;
64688;SDS011;62504;46.070;14.492;2023-02-21T10:38:52;67.43;;;30.70;;
64688;SDS011;62504;46.070;14.492;2023-02-21T10:41:37;62.77;;;29.20;;
64688;SDS011;62504;46.070;14.492;2023-02-21T10:44:46;64.93;;;29.53;;
64688;SDS011;62504;46.070;14.492;2023-02-21T10:50:15;62.13;;;28.73;;
64688;SDS011;62504;46.070;14.492;2023-02-21T10:52:24;61.87;;;28.43;;
64688;SDS011;62504;46.070;14.492;2023-02-21T10:57:27;62.50;;;29.37;;
64688;SDS011;62504;46.070;14.492;2023-02-21T10:59:55;64.13;;;29.97;;
64688;SDS011;62504;46.070;14.492;2023-02-21T11:02:34;63.60;;;30.10;;
64688;SDS011;62504;46.070;14.492;2023-02-21T11:05:18;62.50;;;29.07;;
64688;SDS011;62504;46.070;14.492;2023-02-21T11:08:03;61.93;;;28.43;;
64688;SDS011;62504;46.070;14.492;2023-02-21T11:10:39;59.60;;;28.77;;
64688;SDS011;62504;46.070;14.492;2023-02-21T11:13:16;67.20;;;30.27;;
64688;SDS011;62504;46.070;14.492;2023-02-21T11:15:47;62.93;;;28.77;;
64688;SDS011;62504;46.070;14.492;2023-02-21T11:18:30;60.67;;;27.83;;
64688;SDS011;62504;46.070;14.492;2023-02-21T11:20:56;64.87;;;29.63;;
64688;SDS011;62504;46.070;14.492;2023-02-21T11:23:47;64.00;;;28.37;;
64688;SDS011;62504;46.070;14.492;2023-02-21T11:26:23;60.43;;;28.53;;
64688;SDS011;62504;46.070;14.492;2023-02-21T11:28:49;59.27;;;27.40;;
64688;SDS011;62504;46.070;14.492;2023-02-21T11:31:20;62.67;;;29.13;;
64688;SDS011;62504;46.070;14.492;2023-02-21T11:34:02;64.03;;;28.80;;
64688;SDS011;62504;46.070;14.492;2023-02-21T11:36:33;124.20;;;53.00;;
64688;SDS011;62504;46.070;14.492;2023-02-21T11:42:01;129.97;;;52.13;;
64688;SDS011;62504;46.070;14.492;2023-02-21T11:47:11;58.87;;;27.47;;
64688;SDS011;62504;46.070;14.492;2023-02-21T11:52:30;58.87;;;27.10;;
64688;SDS011;62504;46.070;14.492;2023-02-21T11:55:07;57.27;;;26.93;;
64688;SDS011;62504;46.070;14.492;2023-02-21T12:06:25;61.07;;;27.10;;
64688;SDS011;62504;46.070;14.492;2023-02-21T12:23:30;63.13;;;28.13;;
64688;SDS011;62504;46.070;14.492;2023-02-21T12:31:35;59.23;;;27.10;;
64688;SDS011;62504;46.070;14.492;2023-02-21T12:39:06;57.53;;;27.10;;
64688;SDS011;62504;46.070;14.492;2023-02-21T12:47:17;53.93;;;25.40;;
64688;SDS011;62504;46.070;14.492;2023-02-21T12:49:56;60.13;;;26.83;;
64688;SDS011;62504;46.070;14.492;2023-02-21T12:52:33;56.20;;;25.63;;
64688;SDS011;62504;46.070;14.492;2023-02-21T12:55:26;54.50;;;25.87;;
64688;SDS011;62504;46.070;14.492;2023-02-21T13:00:20;54.63;;;25.27;;
64688;SDS011;62504;46.070;14.492;2023-02-21T13:05:32;53.77;;;25.37;;
64688;SDS011;62504;46.070;14.492;2023-02-21T13:08:23;62.30;;;27.03;;
64688;SDS011;62504;46.070;14.492;2023-02-21T13:13:40;61.80;;;26.63;;
64688;SDS011;62504;46.070;14.492;2023-02-21T13:16:08;60.67;;;28.30;;
64688;SDS011;62504;46.070;14.492;2023-02-21T13:18:44;57.57;;;26.50;;
64688;SDS011;62504;46.070;14.492;2023-02-21T13:24:21;60.50;;;27.23;;
64688;SDS011;62504;46.070;14.492;2023-02-21T13:29:45;57.53;;;25.77;;
64688;SDS011;62504;46.070;14.492;2023-02-21T13:32:14;58.00;;;26.47;;
64688;SDS011;62504;46.070;14.492;2023-02-21T13:37:17;60.87;;;27.87;;
64688;SDS011;62504;46.070;14.492;2023-02-21T13:39:52;65.13;;;27.40;;
64688;SDS011;62504;46.070;14.492;2023-02-21T13:42:23;63.13;;;27.83;;
64688;SDS011;62504;46.070;14.492;2023-02-21T13:45:33;61.47;;;27.90;;
64688;SDS011;62504;46.070;14.492;2023-02-21T13:53:08;67.47;;;28.07;;
64688;SDS011;62504;46.070;14.492;2023-02-21T13:55:37;61.47;;;27.37;;
64688;SDS011;62504;46.070;14.492;2023-02-21T14:02:58;65.87;;;28.77;;
64688;SDS011;62504;46.070;14.492;2023-02-21T14:10:56;61.83;;;28.23;;
64688;SDS011;62504;46.070;14.492;2023-02-21T14:13:38;58.10;;;25.90;;
64688;SDS011;62504;46.070;14.492;2023-02-21T14:16:36;62.67;;;27.37;;
64688;SDS011;62504;46.070;14.492;2023-02-21T14:19:16;59.07;;;26.90;;
64688;SDS011;62504;46.070;14.492;2023-02-21T14:21:44;61.70;;;27.13;;
64688;SDS011;62504;46.070;14.492;2023-02-21T14:24:16;64.13;;;28.60;;
64688;SDS011;62504;46.070;14.492;2023-02-21T14:26:55;61.60;;;28.43;;
64688;SDS011;62504;46.070;14.492;2023-02-21T14:42:49;65.47;;;28.43;;
64688;SDS011;62504;46.070;14.492;2023-02-21T15:10:48;71.00;;;29.93;;
64688;SDS011;62504;46.070;14.492;2023-02-21T15:13:26;70.63;;;32.35;;
64688;SDS011;62504;46.070;14.492;2023-02-21T15:15:59;67.47;;;30.67;;
64688;SDS011;62504;46.070;14.492;2023-02-21T15:18:29;68.03;;;29.13;;
64688;SDS011;62504;46.070;14.492;2023-02-21T15:23:31;65.27;;;29.57;;
64688;SDS011;62504;46.070;14.492;2023-02-21T15:25:58;71.67;;;30.07;;
64688;SDS011;62504;46.070;14.492;2023-02-21T15:33:25;68.97;;;30.77;;
64688;SDS011;62504;46.070;14.492;2023-02-21T15:38:45;69.40;;;30.33;;
64688;SDS011;62504;46.070;14.492;2023-02-21T15:44:03;69.70;;;30.40;;
64688;SDS011;62504;46.070;14.492;2023-02-21T15:46:40;69.23;;;30.23;;
64688;SDS011;62504;46.070;14.492;2023-02-21T15:49:24;71.23;;;32.10;;
64688;SDS011;62504;46.070;14.492;2023-02-21T15:51:53;73.83;;;31.97;;
64688;SDS011;62504;46.070;14.492;2023-02-21T15:56:44;75.77;;;31.40;;
64688;SDS011;62504;46.070;14.492;2023-02-21T15:59:12;76.77;;;31.87;;
64688;SDS011;62504;46.070;14.492;2023-02-21T16:01:42;74.20;;;31.90;;
64688;SDS011;62504;46.070;14.492;2023-02-21T16:04:14;72.53;;;31.10;;
64688;SDS011;62504;46.070;14.492;2023-02-21T16:06:46;76.40;;;32.40;;
64688;SDS011;62504;46.070;14.492;2023-02-21T16:09:26;75.07;;;30.77;;
64688;SDS011;62504;46.070;14.492;2023-02-21T16:11:59;76.07;;;31.97;;
64688;SDS011;62504;46.070;14.492;2023-02-21T16:17:20;70.13;;;30.83;;
64688;SDS011;62504;46.070;14.492;2023-02-21T16:19:53;72.13;;;31.47;;
64688;SDS011;62504;46.070;14.492;2023-02-21T16:22:26;72.40;;;31.33;;
64688;SDS011;62504;46.070;14.492;2023-02-21T16:27:43;75.73;;;31.97;;
64688;SDS011;62504;46.070;14.492;2023-02-21T16:30:24;72.83;;;31.33;;
64688;SDS011;62504;46.070;14.492;2023-02-21T16:32:53;79.93;;;33.17;;
64688;SDS011;62504;46.070;14.492;2023-02-21T16:35:27;74.10;;;31.73;;
64688;SDS011;62504;46.070;14.492;2023-02-21T16:37:54;76.07;;;31.57;;
64688;SDS011;62504;46.070;14.492;2023-02-21T16:40:22;74.37;;;31.77;;
64688;SDS011;62504;46.070;14.492;2023-02-21T16:42:53;77.23;;;32.47;;
64688;SDS011;62504;46.070;14.492;2023-02-21T16:45:20;76.70;;;31.13;;
64688;SDS011;62504;46.070;14.492;2023-02-21T16:47:46;72.77;;;30.93;;
64688;SDS011;62504;46.070;14.492;2023-02-21T16:50:30;234.60;;;90.33;;
64688;SDS011;62504;46.070;14.492;2023-02-21T16:52:58;133.47;;;57.33;;
64688;SDS011;62504;46.070;14.492;2023-02-21T16:55:25;74.57;;;32.00;;
64688;SDS011;62504;46.070;14.492;2023-02-21T16:57:52;75.23;;;31.23;;
64688;SDS011;62504;46.070;14.492;2023-02-21T17:00:20;72.60;;;30.53;;
64688;SDS011;62504;46.070;14.492;2023-02-21T17:02:49;76.40;;;31.17;;
64688;SDS011;62504;46.070;14.492;2023-02-21T17:05:16;82.30;;;32.13;;
64688;SDS011;62504;46.070;14.492;2023-02-21T17:07:45;68.73;;;29.90;;
64688;SDS011;62504;46.070;14.492;2023-02-21T17:10:12;75.60;;;31.30;;
64688;SDS011;62504;46.070;14.492;2023-02-21T17:12:37;73.57;;;30.50;;
64688;SDS011;62504;46.070;14.492;2023-02-21T17:15:03;75.70;;;30.53;;
64688;SDS011;62504;46.070;14.492;2023-02-21T17:17:29;76.37;;;31.47;;
64688;SDS011;62504;46.070;14.492;2023-02-21T17:19:55;77.93;;;31.13;;
64688;SDS011;62504;46.070;14.492;2023-02-21T17:22:21;79.00;;;31.57;;
64688;SDS011;62504;46.070;14.492;2023-02-21T17:24:46;74.83;;;31.33;;
64688;SDS011;62504;46.070;14.492;2023-02-21T17:27:12;93.43;;;31.10;;
64688;SDS011;62504;46.070;14.492;2023-02-21T17:29:38;73.17;;;29.47;;
64688;SDS011;62504;46.070;14.492;2023-02-21T17:32:03;79.80;;;30.90;;
64688;SDS011;62504;46.070;14.492;2023-02-21T17:34:34;68.43;;;29.50;;
64688;SDS011;62504;46.070;14.492;2023-02-21T17:37:01;68.90;;;28.97;;
64688;SDS011;62504;46.070;14.492;2023-02-21T17:39:27;68.60;;;29.60;;
64688;SDS011;62504;46.070;14.492;2023-02-21T17:41:53;70.60;;;29.63;;
64688;SDS011;62504;46.070;14.492;2023-02-21T17:44:19;70.77;;;29.40;;
64688;SDS011;62504;46.070;14.492;2023-02-21T17:46:46;70.30;;;28.80;;
64688;SDS011;62504;46.070;14.492;2023-02-21T17:49:16;71.67;;;29.60;;